BEL8RD EBBR-LIMC
Flight info
| Callsign | BEL8RD |
|---|---|
| Flight time | N/A |
| Altitude | 37000 |
| Route | ROUSY DCT GTQ DCT DEVDI DCT RIPUS DCT GERSA DCT SOSON DCT DEGAD Z424 RIXUV |
| Aircraft | A320/M-SDE3FGHIRWY/LB1 |
Departure
| Time | N/A |
|---|---|
| Airport | Brussels Airport (EBBR) |
Arrival
| Time | 2026-05-01 09:21 |
|---|---|
| Airport | Milan Malpensa International Airport (LIMC) |
| Time | Latitude | Longitude | Altitude | Speed | Heading |
|---|---|---|---|---|---|
| 2026-05-01 08:49 | 48.03959 | 7.35124 | 37328 ft | 452 kts | 155° |
| 2026-05-01 08:50 | 47.98194 | 7.38912 | 37323 ft | 452 kts | 155° |
| 2026-05-01 08:50 | 47.92471 | 7.42669 | 37322 ft | 452 kts | 155° |
| 2026-05-01 08:51 | 47.86702 | 7.46436 | 37325 ft | 453 kts | 155° |
| 2026-05-01 08:51 | 47.80921 | 7.50196 | 37326 ft | 453 kts | 155° |
| 2026-05-01 08:52 | 47.75152 | 7.53955 | 37327 ft | 453 kts | 155° |
| 2026-05-01 08:52 | 47.69354 | 7.57603 | 37332 ft | 453 kts | 157° |
| 2026-05-01 08:53 | 47.63490 | 7.61049 | 37336 ft | 453 kts | 157° |
| 2026-05-01 08:53 | 47.57611 | 7.64468 | 37330 ft | 454 kts | 157° |
| 2026-05-01 08:54 | 47.51752 | 7.67935 | 37334 ft | 454 kts | 157° |
| 2026-05-01 08:54 | 47.45899 | 7.71416 | 37333 ft | 453 kts | 157° |
| 2026-05-01 08:55 | 47.40041 | 7.74896 | 37333 ft | 454 kts | 157° |
| 2026-05-01 08:55 | 47.34177 | 7.78359 | 37333 ft | 454 kts | 157° |
| 2026-05-01 08:56 | 47.28346 | 7.81777 | 37336 ft | 454 kts | 157° |
| 2026-05-01 08:56 | 47.22473 | 7.85219 | 37341 ft | 454 kts | 157° |
| 2026-05-01 08:57 | 47.16601 | 7.88664 | 37347 ft | 454 kts | 157° |
| 2026-05-01 08:57 | 47.10731 | 7.92097 | 37353 ft | 454 kts | 157° |
| 2026-05-01 08:58 | 47.04863 | 7.95507 | 37355 ft | 454 kts | 157° |
| 2026-05-01 08:58 | 46.98991 | 7.98915 | 37344 ft | 453 kts | 157° |
| 2026-05-01 08:59 | 46.93160 | 8.02298 | 37336 ft | 453 kts | 157° |
| 2026-05-01 08:59 | 46.87289 | 8.05705 | 37341 ft | 453 kts | 158° |
| 2026-05-01 09:00 | 46.81420 | 8.09091 | 37335 ft | 454 kts | 158° |
| 2026-05-01 09:00 | 46.75538 | 8.12463 | 37339 ft | 454 kts | 158° |
| 2026-05-01 09:01 | 46.69662 | 8.15841 | 37344 ft | 455 kts | 157° |
| 2026-05-01 09:01 | 46.63750 | 8.19227 | 37326 ft | 455 kts | 158° |
| 2026-05-01 09:02 | 46.58054 | 8.22479 | 36588 ft | 455 kts | 158° |
| 2026-05-01 09:02 | 46.55107 | 8.24162 | 35795 ft | 456 kts | 157° |
| 2026-05-01 09:02 | 46.52154 | 8.25846 | 35016 ft | 457 kts | 157° |
| 2026-05-01 09:03 | 46.49193 | 8.27534 | 34211 ft | 458 kts | 156° |
| 2026-05-01 09:03 | 46.46259 | 8.29203 | 33306 ft | 459 kts | 156° |
| 2026-05-01 09:03 | 46.43276 | 8.30897 | 32388 ft | 461 kts | 156° |
| 2026-05-01 09:03 | 46.40284 | 8.32598 | 31436 ft | 462 kts | 156° |
| 2026-05-01 09:04 | 46.37287 | 8.34302 | 30474 ft | 465 kts | 156° |
| 2026-05-01 09:04 | 46.34267 | 8.36017 | 29344 ft | 467 kts | 156° |
| 2026-05-01 09:04 | 46.31245 | 8.37723 | 28505 ft | 463 kts | 156° |
| 2026-05-01 09:04 | 46.28263 | 8.39399 | 27749 ft | 457 kts | 156° |
| 2026-05-01 09:05 | 46.25307 | 8.41060 | 26842 ft | 456 kts | 156° |
| 2026-05-01 09:05 | 46.22353 | 8.42721 | 25996 ft | 453 kts | 156° |
| 2026-05-01 09:05 | 46.19428 | 8.44367 | 25250 ft | 450 kts | 156° |
| 2026-05-01 09:05 | 46.16526 | 8.46003 | 24564 ft | 445 kts | 156° |
| 2026-05-01 09:06 | 46.13660 | 8.47616 | 23865 ft | 441 kts | 156° |
| 2026-05-01 09:06 | 46.10808 | 8.49218 | 23132 ft | 437 kts | 156° |
| 2026-05-01 09:06 | 46.07991 | 8.50794 | 22476 ft | 432 kts | 156° |
| 2026-05-01 09:06 | 46.05208 | 8.52348 | 21820 ft | 427 kts | 156° |
| 2026-05-01 09:07 | 46.02454 | 8.53883 | 20873 ft | 418 kts | 156° |
| 2026-05-01 09:07 | 45.99803 | 8.55358 | 19862 ft | 411 kts | 156° |
| 2026-05-01 09:07 | 45.97159 | 8.56831 | 18809 ft | 407 kts | 156° |
| 2026-05-01 09:07 | 45.94532 | 8.58294 | 17668 ft | 402 kts | 156° |
| 2026-05-01 09:08 | 45.91957 | 8.59724 | 17437 ft | 389 kts | 156° |
| 2026-05-01 09:08 | 45.89563 | 8.61341 | 17301 ft | 371 kts | 145° |
| 2026-05-01 09:08 | 45.87554 | 8.63506 | 17170 ft | 355 kts | 138° |
| 2026-05-01 09:08 | 45.85663 | 8.65702 | 16986 ft | 344 kts | 138° |
| 2026-05-01 09:09 | 45.83833 | 8.67825 | 16848 ft | 332 kts | 138° |
| 2026-05-01 09:09 | 45.82060 | 8.69876 | 16724 ft | 322 kts | 137° |
| 2026-05-01 09:09 | 45.80335 | 8.71873 | 16483 ft | 316 kts | 137° |
| 2026-05-01 09:09 | 45.78631 | 8.73849 | 16143 ft | 314 kts | 137° |
| 2026-05-01 09:10 | 45.76957 | 8.75786 | 15806 ft | 312 kts | 139° |
| 2026-05-01 09:10 | 45.75111 | 8.77431 | 15460 ft | 314 kts | 148° |
| 2026-05-01 09:10 | 45.73161 | 8.78927 | 15111 ft | 313 kts | 148° |
| 2026-05-01 09:10 | 45.71252 | 8.80392 | 14776 ft | 311 kts | 148° |
| 2026-05-01 09:11 | 45.69340 | 8.81857 | 14452 ft | 310 kts | 149° |
| 2026-05-01 09:11 | 45.67448 | 8.83307 | 14112 ft | 309 kts | 149° |
| 2026-05-01 09:11 | 45.65563 | 8.84750 | 13664 ft | 305 kts | 149° |
| 2026-05-01 09:11 | 45.63697 | 8.86177 | 13007 ft | 303 kts | 149° |
| 2026-05-01 09:12 | 45.61809 | 8.87505 | 12370 ft | 301 kts | 158° |
| 2026-05-01 09:12 | 45.59784 | 8.88231 | 11743 ft | 300 kts | 167° |
| 2026-05-01 09:12 | 45.57739 | 8.88791 | 11126 ft | 298 kts | 167° |
| 2026-05-01 09:12 | 45.55712 | 8.89341 | 10580 ft | 295 kts | 167° |
| 2026-05-01 09:13 | 45.53708 | 8.89880 | 9977 ft | 292 kts | 167° |
| 2026-05-01 09:13 | 45.51708 | 8.90420 | 9570 ft | 292 kts | 167° |
| 2026-05-01 09:13 | 45.49742 | 8.90951 | 9192 ft | 290 kts | 168° |
| 2026-05-01 09:13 | 45.47741 | 8.91490 | 8787 ft | 288 kts | 168° |
| 2026-05-01 09:14 | 45.45820 | 8.92015 | 8231 ft | 284 kts | 168° |
| 2026-05-01 09:14 | 45.43887 | 8.92546 | 7724 ft | 278 kts | 168° |
| 2026-05-01 09:14 | 45.42029 | 8.93072 | 7317 ft | 267 kts | 168° |
| 2026-05-01 09:14 | 45.40213 | 8.93445 | 6828 ft | 261 kts | 183° |
| 2026-05-01 09:15 | 45.38517 | 8.92751 | 6312 ft | 251 kts | 214° |
| 2026-05-01 09:15 | 45.37329 | 8.91023 | 5799 ft | 242 kts | 243° |
| 2026-05-01 09:15 | 45.36918 | 8.88799 | 5416 ft | 229 kts | 277° |
| 2026-05-01 09:15 | 45.37437 | 8.86687 | 5246 ft | 229 kts | 309° |
| 2026-05-01 09:16 | 45.38575 | 8.85108 | 5088 ft | 230 kts | 322° |
| 2026-05-01 09:16 | 45.39832 | 8.83686 | 4930 ft | 230 kts | 323° |
| 2026-05-01 09:16 | 45.41099 | 8.82290 | 4799 ft | 231 kts | 323° |
| 2026-05-01 09:17 | 45.43625 | 8.79511 | 4495 ft | 232 kts | 323° |
| 2026-05-01 09:17 | 45.44904 | 8.78120 | 4104 ft | 230 kts | 326° |
| 2026-05-01 09:17 | 45.47956 | 8.77521 | 3496 ft | 225 kts | 356° |
| 2026-05-01 09:18 | 45.49461 | 8.77147 | 3202 ft | 216 kts | 349° |
| 2026-05-01 09:18 | 45.52366 | 8.76288 | 2623 ft | 210 kts | 351° |
| 2026-05-01 09:19 | 45.55041 | 8.75549 | 2078 ft | 182 kts | 351° |
| 2026-05-01 09:19 | 45.56207 | 8.75228 | 1856 ft | 161 kts | 352° |
| 2026-05-01 09:19 | 45.57255 | 8.74939 | 1611 ft | 147 kts | 352° |
| 2026-05-01 09:20 | 45.59194 | 8.74407 | 1206 ft | 139 kts | 352° |
| 2026-05-01 09:20 | 45.61083 | 8.73884 | 847 ft | 137 kts | 352° |
| 2026-05-01 09:21 | 45.62747 | 8.73429 | 740 ft | 69 kts | 348° |
| 2026-05-01 09:21 | 45.63029 | 8.73342 | 736 ft | 33 kts | 342° |
| 2026-05-01 09:21 | 45.63275 | 8.73032 | 741 ft | 13 kts | 304° |
| 2026-05-01 09:22 | 45.63373 | 8.72832 | 740 ft | 11 kts | 304° |
| 2026-05-01 09:22 | 45.63410 | 8.72669 | 741 ft | 12 kts | 261° |
| 2026-05-01 09:23 | 45.63391 | 8.72524 | 741 ft | 15 kts | 259° |
| 2026-05-01 09:23 | 45.63353 | 8.72246 | 741 ft | 13 kts | 259° |
| 2026-05-01 09:24 | 45.63323 | 8.72016 | 741 ft | 11 kts | 259° |
| 2026-05-01 09:24 | 45.63274 | 8.71969 | 741 ft | 9 kts | 168° |
| 2026-05-01 09:24 | 45.63092 | 8.72019 | 741 ft | 16 kts | 169° |
| 2026-05-01 09:25 | 45.62846 | 8.72087 | 740 ft | 17 kts | 169° |
| 2026-05-01 09:25 | 45.62658 | 8.72138 | 740 ft | 10 kts | 169° |
| 2026-05-01 09:26 | 45.62586 | 8.72159 | 741 ft | 14 kts | 168° |
| 2026-05-01 09:26 | 45.62382 | 8.72185 | 741 ft | 15 kts | 219° |
| 2026-05-01 09:26 | 45.62356 | 8.72048 | 741 ft | 13 kts | 259° |
| 2026-05-01 09:27 | 45.62323 | 8.71810 | 741 ft | 11 kts | 259° |
| 2026-05-01 09:27 | 45.62330 | 8.71732 | 740 ft | 7 kts | 336° |
| 2026-05-01 09:27 | 45.62372 | 8.71721 | 741 ft | 5 kts | 349° |
| 2026-05-01 09:28 | 45.62384 | 8.71718 | 739 ft | 0 kts | 349° |